NCAR-RAP Real-Time Weather Data

Output produced by METARs form (17 December 2018  07:12 UTC)
found at http://weather.rap.ucar.edu/surface/
 
Conditions at: KGIF observed 17 December 2018  06:53 UTC
Temperature: 12.2°C (54°F)
Dewpoint: 11.1°C (52°F) [RH = 93%]
Pressure (altimeter): 30.14 inches Hg (1020.7 mb)
[Sea-level pressure: 1020.5 mb]
Winds: from the NNW (330 degrees) at 10 MPH (9 knots; 4.7 m/s)
Visibility: 10 or more miles (16+ km)
Ceiling: 2000 feet AGL
Clouds: broken clouds at 2000 feet AGL
Present Weather: automated observation with no human augmentation;
there may or may not be significant weather present at this time
KGIF 170653Z AUTO 33009KT 10SM BKN020 12/11 A3014 RMK AO2 SLP205 T01220111 TSNO

Conditions at: KGIF observed 17 December 2018  06:27 UTC
Temperature: 12.8°C (55°F)
Dewpoint: 11.1°C (52°F) [RH = 89%]
Pressure (altimeter): 30.14 inches Hg (1020.7 mb)
Winds: from the NNW (330 degrees) at 12 MPH (10 knots; 5.2 m/s)
Visibility: 10 or more miles (16+ km)
Ceiling: 2000 feet AGL
Clouds: broken clouds at 2000 feet AGL
Present Weather: automated observation with no human augmentation;
there may or may not be significant weather present at this time
KGIF 170627Z AUTO 33010KT 10SM BKN020 13/11 A3014 RMK AO2 T01280111 TSNO

Conditions at: KGIF observed 17 December 2018  05:53 UTC
Temperature: 12.2°C (54°F)
Dewpoint: 10.6°C (51°F) [RH = 90%]
Pressure (altimeter): 30.14 inches Hg (1020.7 mb)
[Sea-level pressure: 1020.5 mb]
Winds: from the WNW (300 degrees) at 5 MPH (4 knots; 2.1 m/s)
Visibility: 10 or more miles (16+ km)
Ceiling: at least 12,000 feet AGL
Clouds: sky clear below 12,000 feet AGL
Present Weather: automated observation with no human augmentation;
there may or may not be significant weather present at this time
KGIF 170553Z AUTO 30004KT 10SM CLR 12/11 A3014 RMK AO2 SLP205 T01220106 10167 20122 58008 TSNO

Conditions at: KGIF observed 17 December 2018  04:53 UTC
Temperature: 12.8°C (55°F)
Dewpoint: 11.1°C (52°F) [RH = 89%]
Pressure (altimeter): 30.16 inches Hg (1021.4 mb)
[Sea-level pressure: 1021.1 mb]
Winds: from the WNW (290 degrees) at 6 MPH (5 knots; 2.6 m/s)
Visibility: 10 or more miles (16+ km)
Ceiling: at least 12,000 feet AGL
Clouds: sky clear below 12,000 feet AGL
Present Weather: automated observation with no human augmentation;
there may or may not be significant weather present at this time
KGIF 170453Z AUTO 29005KT 10SM CLR 13/11 A3016 RMK AO2 SLP211 T01280111 402170122 TSNO

Conditions at: KGIF observed 17 December 2018  03:53 UTC
Temperature: 12.8°C (55°F)
Dewpoint: 11.1°C (52°F) [RH = 89%]
Pressure (altimeter): 30.17 inches Hg (1021.8 mb)
[Sea-level pressure: 1021.4 mb]
Winds: from the WNW (300 degrees) at 6 MPH (5 knots; 2.6 m/s)
Visibility: 10 or more miles (16+ km)
Ceiling: at least 12,000 feet AGL
Clouds: sky clear below 12,000 feet AGL
Present Weather: automated observation with no human augmentation;
there may or may not be significant weather present at this time
KGIF 170353Z AUTO 30005KT 10SM CLR 13/11 A3017 RMK AO2 SLP214 T01280111 TSNO

Conditions at: KGIF observed 17 December 2018  02:53 UTC
Temperature: 12.8°C (55°F)
Dewpoint: 10.6°C (51°F) [RH = 86%]
Pressure (altimeter): 30.17 inches Hg (1021.8 mb)
[Sea-level pressure: 1021.4 mb]
Winds: from the WNW (290 degrees) at 6 MPH (5 knots; 2.6 m/s)
Visibility: 10 or more miles (16+ km)
Ceiling: at least 12,000 feet AGL
Clouds: sky clear below 12,000 feet AGL
Present Weather: automated observation with no human augmentation;
there may or may not be significant weather present at this time
KGIF 170253Z AUTO 29005KT 10SM CLR 13/11 A3017 RMK AO2 SLP214 T01280106 51011 TSNO

Conditions at: KGIF observed 17 December 2018  01:53 UTC
Temperature: 13.9°C (57°F)
Dewpoint: 10.6°C (51°F) [RH = 80%]
Pressure (altimeter): 30.16 inches Hg (1021.4 mb)
[Sea-level pressure: 1021.2 mb]
Winds: from the NW (310 degrees) at 6 MPH (5 knots; 2.6 m/s)
Visibility: 10 or more miles (16+ km)
Ceiling: at least 12,000 feet AGL
Clouds: sky clear below 12,000 feet AGL
Present Weather: automated observation with no human augmentation;
there may or may not be significant weather present at this time
KGIF 170153Z AUTO 31005KT 10SM CLR 14/11 A3016 RMK AO2 SLP212 T01390106 TSNO

Conditions at: KGIF observed 17 December 2018  00:53 UTC
Temperature: 14.4°C (58°F)
Dewpoint: 10.6°C (51°F) [RH = 78%]
Pressure (altimeter): 30.16 inches Hg (1021.4 mb)
[Sea-level pressure: 1021.2 mb]
Winds: from the WNW (300 degrees) at 9 MPH (8 knots; 4.2 m/s)
Visibility: 10 or more miles (16+ km)
Ceiling: at least 12,000 feet AGL
Clouds: sky clear below 12,000 feet AGL
Present Weather: automated observation with no human augmentation;
there may or may not be significant weather present at this time
KGIF 170053Z AUTO 30008KT 10SM CLR 14/11 A3016 RMK AO2 SLP212 T01440106 TSNO

Conditions at: KGIF observed 16 December 2018  23:53 UTC
Temperature: 16.7°C (62°F)
Dewpoint: 12.2°C (54°F) [RH = 75%]
Pressure (altimeter): 30.13 inches Hg (1020.4 mb)
[Sea-level pressure: 1020.2 mb]
Winds: from the WNW (300 degrees) at 9 MPH (8 knots; 4.2 m/s)
Visibility: 10 or more miles (16+ km)
Ceiling: at least 12,000 feet AGL
Clouds: sky clear below 12,000 feet AGL
Present Weather: automated observation with no human augmentation;
there may or may not be significant weather present at this time
KGIF 162353Z AUTO 30008KT 10SM CLR 17/12 A3013 RMK AO2 SLP202 T01670122 10217 20167 53014 TSNO

Conditions at: KGIF observed 16 December 2018  22:53 UTC
Temperature: 18.3°C (65°F)
Dewpoint: 13.3°C (56°F) [RH = 73%]
Pressure (altimeter): 30.12 inches Hg (1020.1 mb)
[Sea-level pressure: 1019.8 mb]
Winds: from the WNW (300 degrees) at 13 MPH (11 knots; 5.7 m/s)
Visibility: 10 or more miles (16+ km)
Ceiling: at least 12,000 feet AGL
Clouds: few clouds at 3600 feet AGL
Present Weather: automated observation with no human augmentation;
there may or may not be significant weather present at this time
KGIF 162253Z AUTO 30011KT 10SM FEW036 18/13 A3012 RMK AO2 SLP198 T01830133 TSNO

Conditions at: KGIF observed 16 December 2018  21:53 UTC
Temperature: 20.0°C (68°F)
Dewpoint: 13.9°C (57°F) [RH = 68%]
Pressure (altimeter): 30.10 inches Hg (1019.4 mb)
[Sea-level pressure: 1019.1 mb]
Winds: from the W (280 degrees) at 8 MPH (7 knots; 3.6 m/s)
Visibility: 10 or more miles (16+ km)
Ceiling: at least 12,000 feet AGL
Clouds: sky clear below 12,000 feet AGL
Present Weather: automated observation with no human augmentation;
there may or may not be significant weather present at this time
KGIF 162153Z AUTO 28007KT 10SM CLR 20/14 A3010 RMK AO2 SLP191 T02000139 TSNO

Conditions at: KGIF observed 16 December 2018  20:53 UTC
Temperature: 20.0°C (68°F)
Dewpoint: 13.9°C (57°F) [RH = 68%]
Pressure (altimeter): 30.09 inches Hg (1019.0 mb)
[Sea-level pressure: 1018.8 mb]
Winds: from the NW (310 degrees) at 8 MPH (7 knots; 3.6 m/s)
Visibility: 10 or more miles (16+ km)
Ceiling: at least 12,000 feet AGL
Clouds: few clouds at 4300 feet AGL
Present Weather: automated observation with no human augmentation;
there may or may not be significant weather present at this time
KGIF 162053Z AUTO 31007KT 10SM FEW043 20/14 A3009 RMK AO2 SLP188 T02000139 53002 TSNO

Conditions at: KGIF observed 16 December 2018  20:25 UTC
Temperature: 20.6°C (69°F)
Dewpoint: 14.4°C (58°F) [RH = 68%]
Pressure (altimeter): 30.08 inches Hg (1018.7 mb)
Winds: from the NW (310 degrees) at 8 MPH (7 knots; 3.6 m/s)
Visibility: 10 or more miles (16+ km)
Ceiling: 4000 feet AGL
Clouds: scattered clouds at 2800 feet AGL
broken clouds at 4000 feet AGL
Present Weather: automated observation with no human augmentation;
there may or may not be significant weather present at this time
KGIF 162025Z AUTO 31007KT 10SM SCT028 BKN040 21/14 A3008 RMK AO2 T02060144 TSNO

Conditions at: KGIF observed 16 December 2018  19:53 UTC
Temperature: 20.6°C (69°F)
Dewpoint: 15.0°C (59°F) [RH = 70%]
Pressure (altimeter): 30.08 inches Hg (1018.7 mb)
[Sea-level pressure: 1018.4 mb]
Winds: from the NW (310 degrees) at 8 MPH (7 knots; 3.6 m/s)
Visibility: 10 or more miles (16+ km)
Ceiling: 2700 feet AGL
Clouds: broken clouds at 2700 feet AGL
Present Weather: automated observation with no human augmentation;
there may or may not be significant weather present at this time
KGIF 161953Z AUTO 31007KT 10SM BKN027 21/15 A3008 RMK AO2 SLP184 T02060150 TSNO

Conditions at: KGIF observed 16 December 2018  19:50 UTC
Temperature: 21.0°C (70°F)
Dewpoint: 15.0°C (59°F) [RH = 69%]
Pressure (altimeter): 30.08 inches Hg (1018.7 mb)
Winds: from the WNW (300 degrees) at 7 MPH (6 knots; 3.1 m/s)
Visibility: 10 or more miles (16+ km)
Ceiling: 2700 feet AGL
Clouds: broken clouds at 2700 feet AGL
Present Weather: automated observation with no human augmentation;
there may or may not be significant weather present at this time
KGIF 161950Z AUTO 30006KT 10SM BKN027 21/15 A3008 RMK AO2 TSNO

Conditions at: KGIF observed 16 December 2018  18:53 UTC
Temperature: 20.6°C (69°F)
Dewpoint: 15.0°C (59°F) [RH = 70%]
Pressure (altimeter): 30.08 inches Hg (1018.7 mb)
[Sea-level pressure: 1018.6 mb]
Winds: from the N (350 degrees) at 9 MPH (8 knots; 4.2 m/s)
Visibility: 10 or more miles (16+ km)
Ceiling: at least 12,000 feet AGL
Clouds: scattered clouds at 1900 feet AGL
Present Weather: automated observation with no human augmentation;
there may or may not be significant weather present at this time
KGIF 161853Z AUTO 35008KT 10SM SCT019 21/15 A3008 RMK AO2 SLP186 T02060150 TSNO

Conditions at: KGIF observed 16 December 2018  17:53 UTC
Temperature: 20.6°C (69°F)
Dewpoint: 15.6°C (60°F) [RH = 73%]
Pressure (altimeter): 30.11 inches Hg (1019.7 mb)
[Sea-level pressure: 1019.5 mb]
Winds: from the N (350 degrees) at 9 MPH (8 knots; 4.2 m/s)
Visibility: 10 or more miles (16+ km)
Ceiling: 4000 feet AGL
Clouds: few clouds at 2000 feet AGL
broken clouds at 4000 feet AGL
overcast cloud deck at 4700 feet AGL
Present Weather: automated observation with no human augmentation;
there may or may not be significant weather present at this time
KGIF 161753Z AUTO 35008KT 10SM FEW020 BKN040 OVC047 21/16 A3011 RMK AO2 SLP195 T02060156 10211 20133 58020 TSNO

Conditions at: KGIF observed 16 December 2018  16:53 UTC
Temperature: 20.6°C (69°F)
Dewpoint: 15.6°C (60°F) [RH = 73%]
Pressure (altimeter): 30.14 inches Hg (1020.7 mb)
[Sea-level pressure: 1020.3 mb]
Winds: from the NNW (340 degrees) at 9 MPH (8 knots; 4.2 m/s)
Visibility: 10 or more miles (16+ km)
Ceiling: 1900 feet AGL
Clouds: broken clouds at 1900 feet AGL
Present Weather: automated observation with no human augmentation;
there may or may not be significant weather present at this time
KGIF 161653Z AUTO 34008KT 10SM BKN019 21/16 A3014 RMK AO2 SLP203 T02060156 TSNO

Conditions at: KGIF observed 16 December 2018  16:34 UTC
Temperature: 20.6°C (69°F)
Dewpoint: 15.6°C (60°F) [RH = 73%]
Pressure (altimeter): 30.14 inches Hg (1020.7 mb)
Winds: from the N (360 degrees) at 5 MPH (4 knots; 2.1 m/s)
Visibility: 10 or more miles (16+ km)
Ceiling: 1900 feet AGL
Clouds: broken clouds at 1900 feet AGL
overcast cloud deck at 3300 feet AGL
Present Weather: automated observation with no human augmentation;
there may or may not be significant weather present at this time
KGIF 161634Z AUTO 36004KT 10SM BKN019 OVC033 21/16 A3014 RMK AO2 T02060156 TSNO

Conditions at: KGIF observed 16 December 2018  15:53 UTC
Temperature: 20.0°C (68°F)
Dewpoint: 16.7°C (62°F) [RH = 81%]
Pressure (altimeter): 30.16 inches Hg (1021.4 mb)
[Sea-level pressure: 1021.3 mb]
Winds: from the NNW (340 degrees) at 8 MPH (7 knots; 3.6 m/s)
Visibility: 10 or more miles (16+ km)
Ceiling: at least 12,000 feet AGL
Clouds: scattered clouds at 1800 feet AGL
scattered clouds at 6000 feet AGL
Present Weather: automated observation with no human augmentation;
there may or may not be significant weather present at this time
KGIF 161553Z AUTO 34007KT 10SM SCT018 SCT060 20/17 A3016 RMK AO2 SLP213 T02000167 TSNO

Conditions at: KGIF observed 16 December 2018  14:58 UTC
Temperature: 18.3°C (65°F)
Dewpoint: 17.2°C (63°F) [RH = 93%]
Pressure (altimeter): 30.17 inches Hg (1021.8 mb)
Winds: from the N (350 degrees) at 5 MPH (4 knots; 2.1 m/s)
Visibility: 3 miles (5 km)
Ceiling: at least 12,000 feet AGL
Clouds: few clouds at 500 feet AGL
Present Weather: BR  (mist)
KGIF 161458Z AUTO 35004KT 3SM BR FEW005 18/17 A3017 RMK AO2 T01830172 TSNO

Conditions at: KGIF observed 16 December 2018  14:55 UTC
Temperature: 18.3°C (65°F)
Dewpoint: 17.2°C (63°F) [RH = 93%]
Pressure (altimeter): 30.17 inches Hg (1021.8 mb)
Winds: from the N (10 degrees) at 5 MPH (4 knots; 2.1 m/s)
Visibility: 2.00 miles (3.22 km)
Ceiling: at least 12,000 feet AGL
Clouds: few clouds at 500 feet AGL
Present Weather: BR  (mist)
KGIF 161455Z AUTO 01004KT 2SM BR FEW005 18/17 A3017 RMK AO2 T01830172 TSNO

Conditions at: KGIF observed 16 December 2018  14:53 UTC
Temperature: 18.3°C (65°F)
Dewpoint: 17.2°C (63°F) [RH = 93%]
Pressure (altimeter): 30.17 inches Hg (1021.8 mb)
[Sea-level pressure: 1021.5 mb]
Winds: from the N (350 degrees) at 5 MPH (4 knots; 2.1 m/s)
Visibility: 1.50 miles (2.41 km)
Ceiling: at least 12,000 feet AGL
Clouds: few clouds at 500 feet AGL
Present Weather: BR  (mist)
KGIF 161453Z AUTO 35004KT 1 1/2SM BR FEW005 18/17 A3017 RMK AO2 SLP215 T01830172 53003 TSNO

Conditions at: KGIF observed 16 December 2018  14:46 UTC
Temperature: 17.8°C (64°F)
Dewpoint: 16.7°C (62°F) [RH = 93%]
Pressure (altimeter): 30.17 inches Hg (1021.8 mb)
Winds: from the N (360 degrees) at 5 MPH (4 knots; 2.1 m/s)
Visibility: 1.00 miles (1.61 km)
Ceiling: indefinite ceiling with vertical visibility of 500 feet AGL
Clouds: obscured sky
Present Weather: BR  (mist)
KGIF 161446Z AUTO 36004KT 1SM BR VV005 18/17 A3017 RMK AO2 T01780167 TSNO

Conditions at: KGIF observed 16 December 2018  14:40 UTC
Temperature: 18.3°C (65°F)
Dewpoint: 17.2°C (63°F) [RH = 93%]
Pressure (altimeter): 30.17 inches Hg (1021.8 mb)
Winds: from the NNW (340 degrees) at 5 MPH (4 knots; 2.1 m/s)
Visibility: 1.75 miles (2.82 km)
Ceiling: at least 12,000 feet AGL
Clouds: sky clear below 12,000 feet AGL
Present Weather: BR  (mist)
KGIF 161440Z AUTO 34004KT 1 3/4SM BR CLR 18/17 A3017 RMK AO2 T01830172 TSNO

Conditions at: KGIF observed 16 December 2018  14:22 UTC
Temperature: 17.8°C (64°F)
Dewpoint: 17.2°C (63°F) [RH = 96%]
Pressure (altimeter): 30.17 inches Hg (1021.8 mb)
Winds: calm
Visibility: 2.50 miles (4.02 km)
Ceiling: at least 12,000 feet AGL
Clouds: few clouds at 400 feet AGL
Present Weather: BR  (mist)
KGIF 161422Z AUTO 00000KT 2 1/2SM BR FEW004 18/17 A3017 RMK AO2 T01780172 TSNO

Conditions at: KGIF observed 16 December 2018  14:15 UTC
Temperature: 17.2°C (63°F)
Dewpoint: 16.7°C (62°F) [RH = 97%]
Pressure (altimeter): 30.17 inches Hg (1021.8 mb)
Winds: calm
Visibility: 3 miles (5 km)
Ceiling: at least 12,000 feet AGL
Clouds: few clouds at 400 feet AGL
Present Weather: BR  (mist)
KGIF 161415Z AUTO 00000KT 3SM BR FEW004 17/17 A3017 RMK AO2 T01720167 TSNO

Conditions at: KGIF observed 16 December 2018  14:02 UTC
Temperature: 17.8°C (64°F)
Dewpoint: 16.7°C (62°F) [RH = 93%]
Pressure (altimeter): 30.16 inches Hg (1021.4 mb)
Winds: calm
Visibility: 3 miles (5 km)
Ceiling: at least 12,000 feet AGL
Clouds: sky clear below 12,000 feet AGL
Present Weather: BR  (mist)
KGIF 161402Z AUTO 00000KT 3SM BR CLR 18/17 A3016 RMK AO2 T01780167 TSNO

Conditions at: KGIF observed 16 December 2018  13:53 UTC
Temperature: 17.2°C (63°F)
Dewpoint: 16.7°C (62°F) [RH = 97%]
Pressure (altimeter): 30.16 inches Hg (1021.4 mb)
[Sea-level pressure: 1021.1 mb]
Winds: calm
Visibility: 2.00 miles (3.22 km)
Ceiling: at least 12,000 feet AGL
Clouds: sky clear below 12,000 feet AGL
Present Weather: BR  (mist)
KGIF 161353Z AUTO 00000KT 2SM BR CLR 17/17 A3016 RMK AO2 SLP211 T01720167 TSNO

Conditions at: KGIF observed 16 December 2018  13:37 UTC
Temperature: 16.7°C (62°F)
Dewpoint: 16.7°C (62°F) [RH = 100%]
Pressure (altimeter): 30.16 inches Hg (1021.4 mb)
Winds: calm
Visibility: 2.00 miles (3.22 km)
Ceiling: at least 12,000 feet AGL
Clouds: few clouds at 6500 feet AGL
Present Weather: BR  (mist)
KGIF 161337Z AUTO 00000KT 2SM BR FEW065 17/17 A3016 RMK AO2 T01670167 TSNO

Conditions at: KGIF observed 16 December 2018  13:19 UTC
Temperature: 16.1°C (61°F)
Dewpoint: 16.1°C (61°F) [RH = 100%]
Pressure (altimeter): 30.16 inches Hg (1021.4 mb)
Winds: missing
Visibility: 3 miles (5 km)
Ceiling: at least 12,000 feet AGL
Clouds: few clouds at 6500 feet AGL
Present Weather: BR  (mist)
KGIF 161319Z AUTO 3SM BR FEW065 16/16 A3016 RMK AO2 T01610161 TSNO

Conditions at: KGIF observed 16 December 2018  13:08 UTC
Temperature: 15.6°C (60°F)
Dewpoint: 15.6°C (60°F) [RH = 100%]
Pressure (altimeter): 30.17 inches Hg (1021.8 mb)
Winds: missing
Visibility: 2.50 miles (4.02 km)
Ceiling: 6500 feet AGL
Clouds: few clouds at 700 feet AGL
broken clouds at 6500 feet AGL
Present Weather: BR  (mist)
KGIF 161308Z AUTO 2 1/2SM BR FEW007 BKN065 16/16 A3017 RMK AO2 T01560156 TSNO

Conditions at: KGIF observed 16 December 2018  13:00 UTC
Temperature: 15.0°C (59°F)
Dewpoint: 15.0°C (59°F) [RH = 100%]
Pressure (altimeter): 30.16 inches Hg (1021.4 mb)
Winds: missing
Visibility: 2.00 miles (3.22 km)
Ceiling: at least 12,000 feet AGL
Clouds: scattered clouds at 700 feet AGL
Present Weather: BR  (mist)
KGIF 161300Z AUTO 2SM BR SCT007 15/15 A3016 RMK AO2 T01500150 TSNO

Conditions at: KGIF observed 16 December 2018  12:58 UTC
Temperature: 15.0°C (59°F)
Dewpoint: 15.0°C (59°F) [RH = 100%]
Pressure (altimeter): 30.16 inches Hg (1021.4 mb)
Winds: from the NNW (340 degrees) at 3 MPH (3 knots; 1.6 m/s)
Visibility: 1.50 miles (2.41 km)
Ceiling: at least 12,000 feet AGL
Clouds: scattered clouds at 700 feet AGL
Present Weather: BR  (mist)
KGIF 161258Z AUTO 34003KT 1 1/2SM BR SCT007 15/15 A3016 RMK AO2 T01500150 TSNO

Conditions at: KGIF observed 16 December 2018  12:53 UTC
Temperature: 14.4°C (58°F)
Dewpoint: 14.4°C (58°F) [RH = 100%]
Pressure (altimeter): 30.16 inches Hg (1021.4 mb)
[Sea-level pressure: 1021.2 mb]
Winds: from the NNW (340 degrees) at 3 MPH (3 knots; 1.6 m/s)
Visibility: 0.25 miles (0.40 km)
Ceiling: 700 feet AGL
Clouds: broken clouds at 700 feet AGL
broken clouds at 6500 feet AGL
Present Weather: FG  (fog)
KGIF 161253Z AUTO 34003KT 1/4SM FG BKN007 BKN065 14/14 A3016 RMK AO2 SLP212 T01440144 TSNO

Conditions at: KGIF observed 16 December 2018  12:43 UTC
Temperature: 13.9°C (57°F)
Dewpoint: 13.9°C (57°F) [RH = 100%]
Pressure (altimeter): 30.15 inches Hg (1021.1 mb)
Winds: calm
Visibility: 0.25 miles (0.40 km)
Ceiling: 700 feet AGL
Clouds: broken clouds at 700 feet AGL
broken clouds at 6500 feet AGL
Present Weather: FG  (fog)
KGIF 161243Z AUTO 00000KT 1/4SM FG BKN007 BKN065 14/14 A3015 RMK AO2 T01390139 TSNO

Conditions at: KGIF observed 16 December 2018  12:31 UTC
Temperature: 14.4°C (58°F)
Dewpoint: 14.4°C (58°F) [RH = 100%]
Pressure (altimeter): 30.15 inches Hg (1021.1 mb)
Winds: missing
Visibility: 0.50 miles (0.80 km)
Ceiling: 6500 feet AGL
Clouds: scattered clouds at 800 feet AGL
broken clouds at 6500 feet AGL
Present Weather: FG  (fog)
KGIF 161231Z AUTO 1/2SM FG SCT008 BKN065 14/14 A3015 RMK AO2 T01440144 TSNO

Conditions at: KGIF observed 16 December 2018  12:21 UTC
Temperature: 14.4°C (58°F)
Dewpoint: 14.4°C (58°F) [RH = 100%]
Pressure (altimeter): 30.14 inches Hg (1020.7 mb)
Winds: missing
Visibility: 0.25 miles (0.40 km)
Ceiling: 800 feet AGL
Clouds: broken clouds at 800 feet AGL
overcast cloud deck at 6500 feet AGL
Present Weather: FG  (fog)
KGIF 161221Z AUTO 1/4SM FG BKN008 OVC065 14/14 A3014 RMK AO2 T01440144 TSNO

Conditions at: KGIF observed 16 December 2018  11:53 UTC
Temperature: 14.4°C (58°F)
Dewpoint: 14.4°C (58°F) [RH = 100%]
Pressure (altimeter): 30.13 inches Hg (1020.4 mb)
[Sea-level pressure: 1020.1 mb]
Winds: calm
Visibility: 0.75 miles (1.21 km)
Ceiling: at least 12,000 feet AGL
Clouds: few clouds at 900 feet AGL
few clouds at 6500 feet AGL
Present Weather: BR  (mist)
KGIF 161153Z AUTO 00000KT 3/4SM BR FEW009 FEW065 14/14 A3013 RMK AO2 SLP201 70010 T01440144 10161 20139 53009 TSNO

Conditions at: KGIF observed 16 December 2018  11:50 UTC
Temperature: 15.0°C (59°F)
Dewpoint: 15.0°C (59°F) [RH = 100%]
Pressure (altimeter): 30.13 inches Hg (1020.4 mb)
Winds: calm
Visibility: 1.25 miles (2.01 km)
Ceiling: at least 12,000 feet AGL
Clouds: few clouds at 6500 feet AGL
Present Weather: BR  (mist)
KGIF 161150Z AUTO 00000KT 1 1/4SM BR FEW065 15/15 A3013 RMK AO2 TSNO

Conditions at: KGIF observed 16 December 2018  11:48 UTC
Temperature: 15.0°C (59°F)
Dewpoint: 15.0°C (59°F) [RH = 100%]
Pressure (altimeter): 30.13 inches Hg (1020.4 mb)
Winds: calm
Visibility: 2.00 miles (3.22 km)
Ceiling: at least 12,000 feet AGL
Clouds: sky clear below 12,000 feet AGL
Present Weather: BR  (mist)
KGIF 161148Z AUTO 00000KT 2SM BR CLR 15/15 A3013 RMK AO2 TSNO

Conditions at: KGIF observed 16 December 2018  10:53 UTC
Temperature: 15.6°C (60°F)
Dewpoint: 15.6°C (60°F) [RH = 100%]
Pressure (altimeter): 30.12 inches Hg (1020.1 mb)
[Sea-level pressure: 1019.6 mb]
Winds: calm
Visibility: 5 miles (8 km)
Ceiling: 6000 feet AGL
Clouds: overcast cloud deck at 6000 feet AGL
Present Weather: BR  (mist)
KGIF 161053Z AUTO 00000KT 5SM BR OVC060 16/16 A3012 RMK AO2 SLP196 T01560156 TSNO

Conditions at: KGIF observed 16 December 2018  10:04 UTC
Temperature: 15.6°C (60°F)
Dewpoint: 15.6°C (60°F) [RH = 100%]
Pressure (altimeter): 30.10 inches Hg (1019.4 mb)
Winds: calm
Visibility: 4 miles (6 km)
Ceiling: 5500 feet AGL
Clouds: broken clouds at 5500 feet AGL
Present Weather: BR  (mist)
KGIF 161004Z AUTO 00000KT 4SM BR BKN055 16/16 A3010 RMK AO2 T01560156 TSNO

Conditions at: KGIF observed 16 December 2018  09:53 UTC
Temperature: 15.0°C (59°F)
Dewpoint: 15.0°C (59°F) [RH = 100%]
Pressure (altimeter): 30.10 inches Hg (1019.4 mb)
[Sea-level pressure: 1019.2 mb]
Winds: from the SSW (210 degrees) at 3 MPH (3 knots; 1.6 m/s)
Visibility: 2.50 miles (4.02 km)
Ceiling: 5500 feet AGL
Clouds: few clouds at 2800 feet AGL
broken clouds at 5500 feet AGL
Present Weather: BR  (mist)
KGIF 160953Z AUTO 21003KT 2 1/2SM BR FEW028 BKN055 15/15 A3010 RMK AO2 SLP192 T01500150 TSNO

Conditions at: KGIF observed 16 December 2018  09:50 UTC
Temperature: 15.0°C (59°F)
Dewpoint: 15.0°C (59°F) [RH = 100%]
Pressure (altimeter): 30.10 inches Hg (1019.4 mb)
Winds: from the SSW (200 degrees) at 3 MPH (3 knots; 1.6 m/s)
Visibility: 2.00 miles (3.22 km)
Ceiling: 5500 feet AGL
Clouds: few clouds at 1900 feet AGL
scattered clouds at 2600 feet AGL
broken clouds at 5500 feet AGL
Present Weather: BR  (mist)
KGIF 160950Z AUTO 20003KT 2SM BR FEW019 SCT026 BKN055 15/15 A3010 RMK AO2 TSNO

Conditions at: KGIF observed 16 December 2018  09:42 UTC
Temperature: 15.0°C (59°F)
Dewpoint: 15.0°C (59°F) [RH = 100%]
Pressure (altimeter): 30.10 inches Hg (1019.4 mb)
Winds: from the S (180 degrees) at 3 MPH (3 knots; 1.6 m/s)
Visibility: 2.00 miles (3.22 km)
Ceiling: 2700 feet AGL
Clouds: scattered clouds at 1500 feet AGL
broken clouds at 2700 feet AGL
broken clouds at 4900 feet AGL
Present Weather: BR  (mist)
KGIF 160942Z AUTO 18003KT 2SM BR SCT015 BKN027 BKN049 15/15 A3010 RMK AO2 T01500150 TSNO

Conditions at: KGIF observed 16 December 2018  09:35 UTC
Temperature: 14.4°C (58°F)
Dewpoint: 14.4°C (58°F) [RH = 100%]
Pressure (altimeter): 30.10 inches Hg (1019.4 mb)
Winds: from the S (180 degrees) at 3 MPH (3 knots; 1.6 m/s)
Visibility: 1.50 miles (2.41 km)
Ceiling: 1500 feet AGL
Clouds: broken clouds at 1500 feet AGL
broken clouds at 2700 feet AGL
broken clouds at 4900 feet AGL
Present Weather: BR  (mist)
KGIF 160935Z AUTO 18003KT 1 1/2SM BR BKN015 BKN027 BKN049 14/14 A3010 RMK AO2 T01440144 TSNO

Conditions at: KGIF observed 16 December 2018  09:07 UTC
Temperature: 14.4°C (58°F)
Dewpoint: 14.4°C (58°F) [RH = 100%]
Pressure (altimeter): 30.10 inches Hg (1019.4 mb)
Winds: calm
Visibility: 0.25 miles (0.40 km)
Ceiling: indefinite ceiling with vertical visibility of 1400 feet AGL
Clouds: obscured sky
Present Weather: FG  (fog)
KGIF 160907Z AUTO 00000KT 1/4SM FG VV014 14/14 A3010 RMK AO2 T01440144 TSNO

Conditions at: KGIF observed 16 December 2018  08:53 UTC
Temperature: 15.0°C (59°F)
Dewpoint: 15.0°C (59°F) [RH = 100%]
Pressure (altimeter): 30.09 inches Hg (1019.0 mb)
[Sea-level pressure: 1018.9 mb]
Winds: calm
Visibility: 0.50 miles (0.80 km)
Ceiling: indefinite ceiling with vertical visibility of 1800 feet AGL
Clouds: obscured sky
Present Weather: FG  (fog)
KGIF 160853Z AUTO 00000KT 1/2SM FG VV018 15/15 A3009 RMK AO2 SLP189 T01500150 55000 TSNO

Conditions at: KGIF observed 16 December 2018  08:48 UTC
Temperature: 15.0°C (59°F)
Dewpoint: 15.0°C (59°F) [RH = 100%]
Pressure (altimeter): 30.09 inches Hg (1019.0 mb)
Winds: calm
Visibility: 0.50 miles (0.80 km)
Ceiling: indefinite ceiling with vertical visibility of 2000 feet AGL
Clouds: obscured sky
Present Weather: FG  (fog)
KGIF 160848Z AUTO 00000KT 1/2SM FG VV020 15/15 A3009 RMK AO2 TSNO

Conditions at: KGIF observed 16 December 2018  08:40 UTC
Temperature: 15.0°C (59°F)
Dewpoint: 15.0°C (59°F) [RH = 100%]
Pressure (altimeter): 30.09 inches Hg (1019.0 mb)
Winds: calm
Visibility: 1.25 miles (2.01 km)
Ceiling: at least 12,000 feet AGL
Clouds: few clouds at 2600 feet AGL
scattered clouds at 3000 feet AGL
Present Weather: BR  (mist)
KGIF 160840Z AUTO 00000KT 1 1/4SM BR FEW026 SCT030 15/15 A3009 RMK AO2 T01500150 TSNO

Conditions at: KGIF observed 16 December 2018  08:38 UTC
Temperature: 15.0°C (59°F)
Dewpoint: 15.0°C (59°F) [RH = 100%]
Pressure (altimeter): 30.09 inches Hg (1019.0 mb)
Winds: calm
Visibility: 2.00 miles (3.22 km)
Ceiling: at least 12,000 feet AGL
Clouds: few clouds at 3000 feet AGL
Present Weather: BR  (mist)
KGIF 160838Z AUTO 00000KT 2SM BR FEW030 15/15 A3009 RMK AO2 T01500150 TSNO

Conditions at: KGIF observed 16 December 2018  07:53 UTC
Temperature: 15.6°C (60°F)
Dewpoint: 15.6°C (60°F) [RH = 100%]
Pressure (altimeter): 30.09 inches Hg (1019.0 mb)
[Sea-level pressure: 1018.8 mb]
Winds: calm
Visibility: 3 miles (5 km)
Ceiling: 3800 feet AGL
Clouds: few clouds at 2800 feet AGL
broken clouds at 3800 feet AGL
broken clouds at 4700 feet AGL
Present Weather: BR  (mist)
KGIF 160753Z AUTO 00000KT 3SM BR FEW028 BKN038 BKN047 16/16 A3009 RMK AO2 SLP188 T01560156 TSNO

Conditions at: KGIF observed 16 December 2018  07:49 UTC
Temperature: 16.0°C (61°F)
Dewpoint: 16.0°C (61°F) [RH = 100%]
Pressure (altimeter): 30.09 inches Hg (1019.0 mb)
Winds: calm
Visibility: 2.50 miles (4.02 km)
Ceiling: 6000 feet AGL
Clouds: few clouds at 2600 feet AGL
scattered clouds at 3600 feet AGL
broken clouds at 6000 feet AGL
Present Weather: BR  (mist)
KGIF 160749Z AUTO 00000KT 2 1/2SM BR FEW026 SCT036 BKN060 16/16 A3009 RMK AO2 TSNO

Conditions at: KGIF observed 16 December 2018  07:41 UTC
Temperature: 15.6°C (60°F)
Dewpoint: 15.0°C (59°F) [RH = 96%]
Pressure (altimeter): 30.10 inches Hg (1019.4 mb)
Winds: calm
Visibility: 2.00 miles (3.22 km)
Ceiling: 5500 feet AGL
Clouds: few clouds at 2600 feet AGL
few clouds at 4200 feet AGL
broken clouds at 5500 feet AGL
Present Weather: BR  (mist)
KGIF 160741Z AUTO 00000KT 2SM BR FEW026 FEW042 BKN055 16/15 A3010 RMK AO2 T01560150 TSNO

Conditions at: KGIF observed 16 December 2018  07:24 UTC
Temperature: 15.0°C (59°F)
Dewpoint: 15.0°C (59°F) [RH = 100%]
Pressure (altimeter): 30.10 inches Hg (1019.4 mb)
Winds: calm
Visibility: 1.00 miles (1.61 km)
Ceiling: 6000 feet AGL
Clouds: few clouds at 3900 feet AGL
broken clouds at 6000 feet AGL
Present Weather: BR  (mist)
KGIF 160724Z AUTO 00000KT 1SM BR FEW039 BKN060 15/15 A3010 RMK AO2 T01500150 TSNO

Conditions at: KGIF observed 16 December 2018  07:17 UTC
Temperature: 15.0°C (59°F)
Dewpoint: 15.0°C (59°F) [RH = 100%]
Pressure (altimeter): 30.10 inches Hg (1019.4 mb)
Winds: calm
Visibility: 1.75 miles (2.82 km)
Ceiling: at least 12,000 feet AGL
Clouds: few clouds at 3900 feet AGL
scattered clouds at 5500 feet AGL
Present Weather: BR  (mist)
KGIF 160717Z AUTO 00000KT 1 3/4SM BR FEW039 SCT055 15/15 A3010 RMK AO2 T01500150 TSNO